createdAt,value
2019-05-22T17:26:58.671Z,100341.45
2019-05-22T17:28:34.281Z,100341.48
2019-05-22T17:30:11.326Z,100341.16
2019-05-22T17:31:46.472Z,100338.73
2019-05-22T17:33:21.522Z,100339.13
2019-05-22T17:34:57.986Z,100345.61
2019-05-22T17:36:33.241Z,100345.02
2019-05-22T17:38:09.184Z,100345.64
2019-05-22T17:39:48.935Z,100345.02
2019-05-22T17:41:25.180Z,100350.41
2019-05-22T17:43:02.084Z,100355.78
2019-05-22T17:44:38.899Z,100357.08
2019-05-22T17:46:16.182Z,100348.05
2019-05-22T17:47:53.865Z,100351.08
2019-05-22T17:49:29.611Z,100349.55
2019-05-22T17:51:05.636Z,100355.95
2019-05-22T17:52:40.883Z,100358.48
2019-05-22T17:54:16.525Z,100360.33
2019-05-22T17:55:51.086Z,100362.17
2019-05-22T17:57:26.855Z,100356.25
2019-05-22T17:59:01.619Z,100355.61
2019-05-22T18:00:40.445Z,100359.69
2019-05-22T18:02:17.341Z,100356.62
2019-05-22T18:03:52.644Z,100357.05
2019-05-22T18:05:28.938Z,100364.07
2019-05-22T18:07:05.183Z,100362.36
2019-05-22T18:08:40.185Z,100363.08
2019-05-22T18:10:16.084Z,100363.30
2019-05-22T18:11:51.372Z,100365.44
2019-05-22T18:13:26.730Z,100370.86
2019-05-22T18:15:02.368Z,100374.40
2019-05-22T18:16:38.708Z,100373.63
2019-05-22T18:18:14.560Z,100375.01
2019-05-22T18:19:49.574Z,100376.67
2019-05-22T18:21:24.074Z,100375.45
2019-05-22T18:22:59.935Z,100379.97
2019-05-22T18:24:34.561Z,100377.36
2019-05-22T18:26:10.006Z,100380.39
2019-05-22T18:27:44.497Z,100387.48
2019-05-22T18:29:19.514Z,100386.28
2019-05-22T18:30:54.503Z,100391.11
2019-05-22T18:32:31.536Z,100392.03
2019-05-22T18:34:05.860Z,100394.36
2019-05-22T18:35:41.085Z,100400.78
2019-05-22T18:37:15.868Z,100394.08
2019-05-22T18:38:51.151Z,100401.95
2019-05-22T18:40:25.522Z,100400.35
2019-05-22T18:42:00.594Z,100405.45
2019-05-22T18:43:36.003Z,100403.31
2019-05-22T18:45:11.882Z,100408.12
2019-05-22T18:46:46.389Z,100406.70
2019-05-22T18:48:22.077Z,100408.16
2019-05-22T18:49:56.918Z,100408.80
2019-05-22T18:51:32.267Z,100405.41
2019-05-22T18:53:07.204Z,100411.57
2019-05-22T18:54:42.550Z,100411.85
2019-05-22T18:56:17.397Z,100407.85
2019-05-22T18:57:53.123Z,100420.16
2019-05-22T18:59:27.563Z,100418.55
2019-05-22T19:01:02.697Z,100414.96
2019-05-22T19:02:37.578Z,100421.20
2019-05-22T19:04:13.038Z,100420.13
2019-05-22T19:05:47.549Z,100424.55
2019-05-22T19:07:22.514Z,100427.63
2019-05-22T19:08:58.129Z,100431.09
2019-05-22T19:10:33.290Z,100430.27
2019-05-22T19:12:07.924Z,100426.34
2019-05-22T19:13:42.983Z,100425.55
2019-05-22T19:15:18.963Z,100432.50
2019-05-22T19:16:53.981Z,100428.88
2019-05-22T19:18:28.438Z,100434.18
2019-05-22T19:20:03.513Z,100436.41
2019-05-22T19:21:37.907Z,100431.05
2019-05-22T19:23:13.297Z,100428.83
2019-05-22T19:24:47.677Z,100431.70
2019-05-22T19:26:22.788Z,100430.45
2019-05-22T19:27:57.166Z,100429.20
2019-05-22T19:29:32.587Z,100424.83
2019-05-22T19:31:07.568Z,100426.59
2019-05-22T19:32:42.934Z,100434.44
2019-05-22T19:34:17.994Z,100429.95
2019-05-22T19:35:53.449Z,100426.98
2019-05-22T19:37:28.182Z,100426.38
2019-05-22T19:39:03.334Z,100430.89
2019-05-22T19:40:38.220Z,100436.07
2019-05-22T19:42:13.342Z,100436.33
2019-05-22T19:43:48.094Z,100437.20
2019-05-22T19:45:23.222Z,100435.30
2019-05-22T19:46:57.758Z,100440.69
2019-05-22T19:48:32.831Z,100434.30
2019-05-22T19:50:22.341Z,100441.27
2019-05-22T19:51:45.547Z,100440.41
2019-05-22T19:53:21.994Z,100435.23
2019-05-22T19:54:57.316Z,100441.27
2019-05-22T19:56:33.067Z,100442.44
2019-05-22T19:58:09.813Z,100443.35
2019-05-22T19:59:44.639Z,100449.60
2019-05-22T20:01:20.035Z,100441.14
2019-05-22T20:02:54.747Z,100447.74
2019-05-22T20:04:30.096Z,100450.67
2019-05-22T20:06:05.450Z,100445.48
2019-05-22T20:07:41.521Z,100456.05
2019-05-22T20:09:17.425Z,100447.45
2019-05-22T20:10:52.821Z,100446.19
2019-05-22T20:12:28.045Z,100452.47
2019-05-22T20:14:03.060Z,100450.56
2019-05-22T20:15:38.600Z,100456.11
2019-05-22T20:17:14.322Z,100449.83
2019-05-22T20:18:49.414Z,100451.66
2019-05-22T20:20:26.285Z,100458.52
2019-05-22T20:22:00.869Z,100451.28
2019-05-22T20:23:37.189Z,100461.84
2019-05-22T20:25:12.923Z,100456.85
2019-05-22T20:26:47.950Z,100460.44
2019-05-22T20:28:22.925Z,100462.30
2019-05-22T20:29:58.353Z,100465.50
2019-05-22T20:31:32.977Z,100463.41
2019-05-22T20:33:08.606Z,100470.07
2019-05-22T20:34:43.775Z,100466.41
2019-05-22T20:36:19.550Z,100466.45
2019-05-22T20:37:54.821Z,100472.37
2019-05-22T20:39:30.649Z,100469.07
2019-05-22T20:41:05.420Z,100469.08
2019-05-22T20:42:41.279Z,100464.73
2019-05-22T20:44:16.532Z,100468.38
2019-05-22T20:45:53.989Z,100468.89
2019-05-22T20:47:29.472Z,100465.66
2019-05-22T20:49:04.893Z,100466.73
2019-05-22T20:50:40.297Z,100473.64
2019-05-22T20:52:16.525Z,100472.33
2019-05-22T20:53:54.525Z,100474.97
2019-05-22T20:55:29.101Z,100478.97
2019-05-22T20:57:05.554Z,100475.92
2019-05-22T20:58:41.285Z,100477.97
2019-05-22T21:00:17.002Z,100482.08
2019-05-22T21:01:52.129Z,100486.31
2019-05-22T21:03:26.610Z,100488.13
2019-05-22T21:05:01.884Z,100487.20
2019-05-22T21:06:41.276Z,100494.80
2019-05-22T21:08:18.666Z,100493.18
2019-05-22T21:09:53.577Z,100494.91
2019-05-22T21:11:30.073Z,100493.54
2019-05-22T21:13:05.967Z,100500.92
2019-05-22T21:14:41.565Z,100497.77
2019-05-22T21:16:16.806Z,100496.02
2019-05-22T21:17:54.093Z,100498.72
2019-05-22T21:19:29.193Z,100500.12
2019-05-22T21:21:04.447Z,100500.17
2019-05-22T21:22:39.947Z,100501.04
2019-05-22T21:24:15.354Z,100500.94
2019-05-22T21:27:43.541Z,100500.28
2019-05-22T21:29:19.863Z,100497.86
2019-05-22T21:30:55.342Z,100498.19
2019-05-22T21:32:30.941Z,100493.86
2019-05-22T21:34:06.070Z,100489.81
2019-05-22T21:35:41.725Z,100497.05
2019-05-22T21:37:17.895Z,100487.54
2019-05-22T21:38:53.930Z,100495.67
2019-05-22T21:40:28.580Z,100493.45
2019-05-22T21:42:04.216Z,100494.34
2019-05-22T21:43:39.477Z,100499.21
2019-05-22T21:45:14.981Z,100499.10
2019-05-22T21:46:50.560Z,100491.08
2019-05-22T21:48:26.734Z,100501.39
2019-05-22T21:50:01.863Z,100502.37
2019-05-22T21:51:37.596Z,100501.45
2019-05-22T21:53:13.766Z,100495.78
2019-05-22T21:54:48.888Z,100497.05
2019-05-22T21:56:24.917Z,100497.86
2019-05-22T21:58:01.117Z,100493.97
2019-05-22T21:59:35.572Z,100495.59
2019-05-22T22:01:20.464Z,100498.97
2019-05-22T22:02:56.366Z,100503.80
2019-05-22T22:04:34.622Z,100492.92
2019-05-22T22:06:09.818Z,100494.08
2019-05-22T22:07:45.246Z,100501.42
2019-05-22T22:09:21.237Z,100497.72
2019-05-22T22:10:57.301Z,100505.85
2019-05-22T22:12:31.865Z,100500.86
2019-05-22T22:14:07.959Z,100504.50
2019-05-22T22:15:43.487Z,100504.31
2019-05-22T22:17:20.259Z,100502.94
2019-05-22T22:18:57.480Z,100508.33
2019-05-22T22:20:33.117Z,100513.78
2019-05-22T22:22:11.680Z,100503.80
2019-05-22T22:23:47.561Z,100509.22
2019-05-22T22:25:23.863Z,100505.20
2019-05-22T22:26:58.826Z,100506.95
2019-05-22T22:28:33.788Z,100509.06
2019-05-22T22:30:17.450Z,100512.89
2019-05-22T22:31:54.421Z,100506.74
2019-05-22T22:33:31.562Z,100503.93
2019-05-22T22:35:09.458Z,100506.55
2019-05-22T22:36:44.899Z,100501.51
2019-05-22T22:38:22.058Z,100510.25
2019-05-22T22:39:57.240Z,100512.44
2019-05-22T22:41:33.985Z,100514.87
2019-05-22T22:43:09.983Z,100514.28
2019-05-22T22:44:48.758Z,100518.52
2019-05-22T22:46:45.906Z,100520.62
2019-05-22T22:48:23.269Z,100522.27
2019-05-22T22:49:58.884Z,100521.94
2019-05-22T22:51:33.380Z,100520.89
2019-05-22T22:53:08.561Z,100514.49
2019-05-22T22:54:44.568Z,100517.87
2019-05-22T22:56:21.405Z,100517.03
2019-05-22T22:57:55.829Z,100515.84
2019-05-22T22:59:31.635Z,100521.19
2019-05-22T23:01:10.312Z,100515.25
2019-05-22T23:02:47.089Z,100517.06
2019-05-22T23:04:23.950Z,100523.70
2019-05-22T23:05:59.159Z,100525.02
2019-05-22T23:07:35.330Z,100526.02
2019-05-22T23:09:11.347Z,100518.59
2019-05-22T23:10:46.199Z,100528.86
2019-05-22T23:12:22.205Z,100529.02
2019-05-22T23:13:57.542Z,100529.10
2019-05-22T23:15:34.011Z,100528.41
2019-05-22T23:17:11.097Z,100527.67
2019-05-22T23:19:41.126Z,100527.89
2019-05-22T23:21:16.137Z,100529.53
2019-05-22T23:22:49.259Z,100534.09
2019-05-22T23:24:26.758Z,100530.34
2019-05-22T23:26:02.288Z,100532.13
2019-05-22T23:27:37.595Z,100535.48
2019-05-22T23:29:12.956Z,100534.05
2019-05-22T23:30:49.226Z,100534.98
2019-05-22T23:32:24.442Z,100536.55
2019-05-22T23:33:59.884Z,100543.30
2019-05-22T23:35:34.757Z,100547.00
2019-05-22T23:37:13.687Z,100543.30
2019-05-22T23:38:50.101Z,100541.77
2019-05-22T23:40:29.099Z,100540.95
2019-05-22T23:42:10.071Z,100549.97
2019-05-22T23:43:47.208Z,100546.59
2019-05-22T23:45:22.041Z,100541.63
2019-05-22T23:46:57.496Z,100544.20
2019-05-22T23:48:33.567Z,100540.12
2019-05-22T23:50:09.883Z,100536.23
2019-05-22T23:51:45.828Z,100540.03
2019-05-22T23:53:23.137Z,100538.98
2019-05-22T23:54:57.873Z,100539.23
2019-05-22T23:56:35.534Z,100541.44
2019-05-22T23:58:12.345Z,100537.09
2019-05-22T23:59:53.044Z,100544.48
